Time;durP1;ratioP1;P1;durP2;ratioP2;P2;SDS_P1;SDS_P2;PMS_P1;PMS_P2;Temp;Humidity;BMP_temperature;BMP_pressure;BME280_temperature;BME280_humidity;BME280_pressure;Samples;Min_cycle;Max_cycle;Signal;HPM_P1;HPM_P2
2022/08/18 00:02:09;;;;;;;4.97;4.47;;;;;;;27.33;74.77;99631.66;5091709;28;20686;-75
2022/08/18 00:04:37;;;;;;;7.25;5.13;;;;;;;27.32;75.44;99630.84;5092013;28;20205;-76
2022/08/18 00:07:06;;;;;;;6.05;5.00;;;;;;;27.35;75.74;99629.78;5099161;28;20221;-75
2022/08/18 00:09:34;;;;;;;5.68;5.20;;;;;;;27.24;76.52;99641.09;5071869;28;20272;-76
2022/08/18 00:12:03;;;;;;;7.07;4.72;;;;;;;27.05;76.49;99614.72;5090622;28;20739;-76
2022/08/18 00:14:29;;;;;;;7.75;5.07;;;;;;;27.11;76.78;99640.13;5090455;28;20263;-75
2022/08/18 00:16:57;;;;;;;7.45;4.88;;;;;;;26.82;78.45;99603.69;5093114;28;20213;-76
2022/08/18 00:19:25;;;;;;;5.40;4.90;;;;;;;27.05;78.60;99638.66;5092557;28;20201;-76
2022/08/18 00:21:51;;;;;;;4.43;4.03;;;;;;;27.00;80.05;99646.03;5090328;28;20220;-77
2022/08/18 00:24:20;;;;;;;7.93;5.07;;;;;;;27.10;80.41;99654.38;5090553;28;20194;-76
2022/08/18 00:26:47;;;;;;;10.27;5.03;;;;;;;26.92;81.63;99653.66;5106202;28;20202;-76
2022/08/18 00:29:14;;;;;;;8.40;5.75;;;;;;;26.95;82.28;99656.13;5110356;28;20197;-75
2022/08/18 00:31:41;;;;;;;7.28;5.43;;;;;;;26.77;82.98;99654.50;5062871;28;20194;-76
2022/08/18 00:34:08;;;;;;;8.68;5.32;;;;;;;26.76;83.87;99657.25;5095088;28;20585;-76
2022/08/18 00:36:35;;;;;;;7.35;5.05;;;;;;;26.52;85.23;99635.59;5090073;28;20322;-76
2022/08/18 00:39:02;;;;;;;6.22;5.65;;;;;;;26.55;85.23;99649.56;5090284;28;20670;-74
2022/08/18 00:41:30;;;;;;;4.85;4.50;;;;;;;26.56;85.26;99647.78;5092586;28;20205;-76
2022/08/18 00:43:58;;;;;;;7.88;5.47;;;;;;;26.43;85.89;99646.75;5097640;28;20654;-76
2022/08/18 00:46:28;;;;;;;6.53;5.93;;;;;;;26.40;87.77;99660.19;5039351;28;20252;-77
2022/08/18 00:48:55;;;;;;;15.25;5.55;;;;;;;26.22;88.79;99646.16;5058151;28;20198;-77
2022/08/18 00:51:26;;;;;;;8.02;5.57;;;;;;;26.22;89.42;99650.63;5090459;28;20209;-77
2022/08/18 00:53:59;;;;;;;6.13;5.57;;;;;;;26.21;90.82;99638.28;5089501;28;20206;-77
2022/08/18 00:56:32;;;;;;;8.40;6.07;;;;;;;26.03;92.66;99646.31;5089423;28;20201;-78
2022/08/18 00:59:06;;;;;;;10.40;5.95;;;;;;;25.91;94.95;99643.44;5089059;28;20193;-76
2022/08/18 01:01:34;;;;;;;7.07;5.32;;;;;;;25.95;96.06;99656.47;5088977;28;20221;-77
2022/08/18 01:04:07;;;;;;;9.43;6.22;;;;;;;25.75;95.25;99598.28;5101631;28;20198;-76
2022/08/18 01:06:40;;;;;;;7.93;5.82;;;;;;;26.27;94.51;99664.50;5093448;28;20197;-77
2022/08/18 01:09:08;;;;;;;7.70;5.65;;;;;;;26.10;95.71;99652.13;5101090;28;20211;-77
2022/08/18 01:11:38;;;;;;;6.18;5.32;;;;;;;26.01;97.98;99666.78;5109710;28;20209;-77
2022/08/18 01:14:07;;;;;;;8.00;5.80;;;;;;;25.91;100.00;99665.56;5097242;28;20225;-77
2022/08/18 01:22:13;;;;;;;7.90;6.25;;;;;;;25.76;100.00;99662.88;5094142;28;20229;-78
2022/08/18 01:27:30;;;;;;;7.43;5.47;;;;;;;25.76;100.00;99655.75;5094391;28;20196;-78
2022/08/18 01:30:03;;;;;;;6.28;5.68;;;;;;;25.75;100.00;99634.59;5093726;28;20568;-77
2022/08/18 01:32:30;;;;;;;7.38;5.80;;;;;;;25.68;100.00;99658.00;5093630;28;20209;-78
2022/08/18 01:34:57;;;;;;;8.23;6.15;;;;;;;25.72;100.00;99656.84;5093860;28;20594;-77
2022/08/18 01:37:24;;;;;;;9.32;6.43;;;;;;;25.65;100.00;99644.84;5100635;28;20224;-77
2022/08/18 01:39:53;;;;;;;9.02;5.97;;;;;;;25.84;100.00;99658.88;5112757;28;20197;-77
2022/08/18 01:42:20;;;;;;;5.97;5.35;;;;;;;25.74;100.00;99665.63;5110961;28;20217;-77
2022/08/18 01:44:50;;;;;;;9.98;6.18;;;;;;;25.62;100.00;99656.50;5095663;28;20202;-77
2022/08/18 01:47:19;;;;;;;7.70;5.70;;;;;;;25.64;100.00;99653.78;5113749;28;20692;-77
2022/08/18 01:49:46;;;;;;;7.30;5.70;;;;;;;25.48;100.00;99643.06;5094626;28;20289;-77
2022/08/18 01:52:19;;;;;;;8.60;6.03;;;;;;;25.52;100.00;99670.34;5093536;28;20229;-76
2022/08/18 01:54:47;;;;;;;6.45;5.85;;;;;;;25.34;100.00;99645.59;5093544;28;20288;-77
2022/08/18 01:57:16;;;;;;;6.13;5.53;;;;;;;25.33;100.00;99672.22;5094364;28;20209;-77
2022/08/18 01:59:43;;;;;;;6.55;6.00;;;;;;;25.24;100.00;99662.06;5110901;28;20193;-78
2022/08/18 02:02:14;;;;;;;6.57;5.75;;;;;;;25.52;100.00;99670.34;5107862;28;20222;-77
2022/08/18 02:04:43;;;;;;;8.55;6.15;;;;;;;25.48;100.00;99668.75;5093117;28;20696;-77
2022/08/18 02:07:13;;;;;;;6.30;5.70;;;;;;;25.54;100.00;99673.78;5092863;28;20213;-77
2022/08/18 02:09:42;;;;;;;6.82;6.10;;;;;;;25.35;100.00;99676.50;5093180;28;20202;-77
2022/08/18 02:12:09;;;;;;;8.55;6.45;;;;;;;25.42;100.00;99674.41;5093506;28;20197;-78
2022/08/18 02:14:38;;;;;;;7.45;5.93;;;;;;;25.24;100.00;99646.16;5092063;28;20252;-78
2022/08/18 02:17:07;;;;;;;9.27;6.10;;;;;;;25.25;100.00;99682.38;5089827;28;20729;-79
2022/08/18 02:19:35;;;;;;;8.60;6.43;;;;;;;25.15;100.00;99664.25;5072423;28;20202;-79
2022/08/18 02:22:02;;;;;;;9.52;6.35;;;;;;;25.07;100.00;99673.56;5100098;28;20225;-77
2022/08/18 02:24:29;;;;;;;8.35;6.35;;;;;;;25.12;100.00;99682.13;5092300;28;20198;-77
2022/08/18 02:26:56;;;;;;;6.68;6.07;;;;;;;25.07;100.00;99676.22;5091972;28;20209;-78
2022/08/18 02:29:23;;;;;;;9.38;5.85;;;;;;;25.13;100.00;99678.53;5106429;28;20196;-77
2022/08/18 02:31:52;;;;;;;7.93;5.97;;;;;;;25.17;100.00;99686.28;5073497;28;20198;-78
2022/08/18 02:34:19;;;;;;;7.55;6.25;;;;;;;25.11;100.00;99686.56;5110254;28;20209;-76
2022/08/18 02:36:45;;;;;;;8.18;6.28;;;;;;;25.03;100.00;99678.16;5104849;28;20233;-76
2022/08/18 02:39:12;;;;;;;10.50;7.13;;;;;;;24.94;100.00;99673.31;5100851;28;20200;-76
2022/08/18 02:41:39;;;;;;;6.95;6.25;;;;;;;24.97;100.00;99667.00;5108934;28;20217;-76
2022/08/18 02:44:07;;;;;;;8.50;6.70;;;;;;;25.03;100.00;99672.84;5108086;28;20201;-77
2022/08/18 02:46:34;;;;;;;7.95;7.10;;;;;;;24.92;100.00;99669.03;5075724;28;20209;-76
2022/08/18 02:49:04;;;;;;;8.63;6.60;;;;;;;24.78;100.00;99672.34;5100646;28;20194;-77
2022/08/18 02:51:31;;;;;;;7.88;7.07;;;;;;;24.64;100.00;99648.28;5071721;28;20611;-77
2022/08/18 02:53:59;;;;;;;8.90;6.78;;;;;;;24.69;100.00;99646.25;5091624;28;20217;-76
2022/08/18 02:56:29;;;;;;;11.20;6.22;;;;;;;25.01;100.00;99666.75;5097604;28;20202;-77
2022/08/18 02:58:58;;;;;;;10.10;7.38;;;;;;;24.93;100.00;99670.75;5102712;28;20190;-78
2022/08/18 03:01:27;;;;;;;7.97;7.28;;;;;;;24.90;100.00;99677.03;5092239;28;20205;-80
2022/08/18 03:03:54;;;;;;;8.38;6.88;;;;;;;24.85;100.00;99676.44;5092147;28;20220;-75
2022/08/18 03:06:23;;;;;;;9.60;6.72;;;;;;;24.90;100.00;99674.38;5098065;28;20221;-74
2022/08/18 03:08:52;;;;;;;9.38;6.82;;;;;;;24.60;100.00;99670.59;5102657;28;20205;-74
2022/08/18 03:11:22;;;;;;;11.25;7.45;;;;;;;24.48;100.00;99649.97;5107916;28;20247;-74
2022/08/18 03:13:50;;;;;;;10.20;7.15;;;;;;;24.48;100.00;99681.75;5093227;28;20209;-74
2022/08/18 03:16:18;;;;;;;8.75;6.85;;;;;;;24.47;100.00;99662.34;5072776;28;20191;-74
2022/08/18 03:18:46;;;;;;;7.43;6.50;;;;;;;24.52;100.00;99686.00;5107409;28;20578;-74
2022/08/18 03:21:16;;;;;;;7.53;6.72;;;;;;;24.63;100.00;99668.63;5111239;28;20208;-74
2022/08/18 03:23:44;;;;;;;6.90;6.30;;;;;;;24.61;100.00;99685.56;5105154;28;20210;-74
2022/08/18 03:26:14;;;;;;;11.35;6.45;;;;;;;24.37;100.00;99676.13;5091232;28;20198;-74
2022/08/18 03:28:45;;;;;;;9.93;6.90;;;;;;;24.65;100.00;99719.78;5107608;28;20190;-74
2022/08/18 03:31:14;;;;;;;8.75;7.60;;;;;;;24.68;100.00;99719.63;5096164;28;20198;-74
2022/08/18 03:33:41;;;;;;;8.88;6.57;;;;;;;24.66;100.00;99718.88;5070844;28;20605;-74
2022/08/18 03:36:11;;;;;;;7.65;6.57;;;;;;;24.70;100.00;99722.22;5053256;28;20205;-73
2022/08/18 03:38:39;;;;;;;7.82;6.80;;;;;;;24.79;100.00;99727.09;5090272;28;20194;-74
2022/08/18 03:41:08;;;;;;;8.40;7.28;;;;;;;24.75;100.00;99714.91;5101222;28;20208;-75
2022/08/18 03:43:35;;;;;;;12.40;8.45;;;;;;;24.67;100.00;99733.84;5110836;28;20229;-74
2022/08/18 03:46:04;;;;;;;13.20;8.27;;;;;;;24.69;100.00;99725.81;5107092;28;20193;-74
2022/08/18 03:48:32;;;;;;;13.63;8.18;;;;;;;24.66;100.00;99731.25;5106140;28;20209;-74
2022/08/18 03:51:03;;;;;;;14.65;8.30;;;;;;;24.84;100.00;99725.09;5107950;28;20877;-75
2022/08/18 03:53:31;;;;;;;11.63;8.05;;;;;;;25.06;100.00;99735.50;5111469;28;20197;-74
2022/08/18 03:55:58;;;;;;;10.50;7.88;;;;;;;25.40;100.00;99745.31;5106530;28;20288;-74
2022/08/18 03:58:26;;;;;;;11.60;7.65;;;;;;;25.64;100.00;99738.75;5107439;28;20206;-74
2022/08/18 04:00:53;;;;;;;12.48;7.22;;;;;;;25.77;100.00;99742.47;5090691;28;20280;-74
2022/08/18 04:03:20;;;;;;;8.50;6.95;;;;;;;26.21;100.00;99745.47;5090837;28;20221;-74
2022/08/18 04:05:47;;;;;;;11.18;6.60;;;;;;;26.31;100.00;99740.50;5091805;28;20234;-74
2022/08/18 04:08:14;;;;;;;11.13;7.20;;;;;;;26.21;100.00;99753.44;5104833;28;20261;-75
2022/08/18 04:10:44;;;;;;;12.05;7.35;;;;;;;26.45;100.00;99744.09;5110993;28;20197;-74
2022/08/18 04:13:10;;;;;;;9.60;7.43;;;;;;;26.60;99.77;99753.03;5100285;28;20206;-74
2022/08/18 04:15:39;;;;;;;8.45;6.65;;;;;;;27.08;96.24;99762.72;5099596;28;20231;-74
2022/08/18 04:18:07;;;;;;;11.15;6.78;;;;;;;27.23;93.31;99753.84;5097686;28;20194;-74
2022/08/18 04:20:34;;;;;;;8.80;7.38;;;;;;;27.62;89.70;99761.31;5100717;28;20197;-74
2022/08/18 04:23:02;;;;;;;8.40;7.00;;;;;;;28.14;87.79;99769.69;5110437;28;20225;-74
2022/08/18 04:25:29;;;;;;;10.90;6.85;;;;;;;28.37;84.80;99762.91;5110483;28;20201;-74
2022/08/18 04:27:59;;;;;;;9.80;7.72;;;;;;;28.47;83.33;99761.38;5074922;28;20197;-74
2022/08/18 04:30:26;;;;;;;7.55;6.85;;;;;;;28.71;82.13;99764.34;5091603;28;20587;-74
2022/08/18 04:32:54;;;;;;;8.77;6.55;;;;;;;28.69;82.11;99761.75;5096779;28;20203;-74
2022/08/18 04:35:23;;;;;;;9.10;7.00;;;;;;;29.01;80.66;99770.31;5108762;28;20208;-74
2022/08/18 04:37:49;;;;;;;9.43;6.53;;;;;;;29.15;78.63;99743.56;5092757;28;20681;-75
2022/08/18 04:40:16;;;;;;;10.98;7.07;;;;;;;29.52;78.36;99769.56;5091490;28;20661;-74
2022/08/18 04:42:44;;;;;;;9.63;6.70;;;;;;;29.72;74.15;99773.53;5101703;28;20217;-74
2022/08/18 04:45:12;;;;;;;7.72;6.60;;;;;;;29.57;75.17;99736.31;5090263;28;20193;-74
2022/08/18 04:47:40;;;;;;;8.25;6.70;;;;;;;30.46;71.45;99773.69;5105004;28;20261;-74
2022/08/18 04:50:10;;;;;;;11.35;6.97;;;;;;;30.57;67.96;99764.88;5090777;28;20197;-74
2022/08/18 04:55:21;;;;;;;7.80;6.70;;;;;;;30.69;67.33;99776.50;5110446;28;20714;-76
2022/08/18 04:57:48;;;;;;;8.27;6.72;;;;;;;30.52;67.80;99787.59;5114320;28;20207;-74
2022/08/18 05:00:16;;;;;;;7.80;7.03;;;;;;;31.06;65.27;99788.09;5114485;28;20296;-76
2022/08/18 05:02:42;;;;;;;9.07;6.43;;;;;;;31.30;63.16;99762.13;5101225;28;20228;-75
2022/08/18 05:05:11;;;;;;;9.23;6.53;;;;;;;31.81;60.91;99785.00;5109482;28;20204;-74
2022/08/18 05:07:44;;;;;;;7.93;6.57;;;;;;;31.62;61.67;99771.31;5112699;28;20718;-72
2022/08/18 05:10:11;;;;;;;12.75;7.00;;;;;;;31.95;60.23;99760.66;5114631;28;20196;-75
2022/08/18 05:12:41;;;;;;;8.20;6.88;;;;;;;32.44;58.90;99786.31;5104731;28;20212;-74
2022/08/18 05:15:09;;;;;;;8.02;7.28;;;;;;;32.68;57.30;99784.34;5094274;28;20205;-75
2022/08/18 05:17:38;;;;;;;8.85;6.65;;;;;;;32.71;56.83;99773.34;5114458;28;20712;-76
2022/08/18 05:20:06;;;;;;;7.95;6.70;;;;;;;32.57;56.46;99788.88;5080816;28;20281;-77
2022/08/18 05:22:39;;;;;;;10.48;6.95;;;;;;;32.54;56.99;99779.22;5058339;28;20233;-77
2022/08/18 05:25:08;;;;;;;7.65;6.88;;;;;;;32.18;58.30;99785.69;5082300;28;20194;-75
2022/08/18 05:27:36;;;;;;;8.48;7.25;;;;;;;31.57;61.71;99784.19;5085123;28;20280;-75
2022/08/18 05:30:06;;;;;;;8.02;7.22;;;;;;;30.67;65.14;99775.78;5093765;28;20217;-77
2022/08/18 05:32:36;;;;;;;12.82;7.22;;;;;;;29.79;68.96;99733.84;5094396;28;20212;-76
2022/08/18 05:35:05;;;;;;;8.75;7.45;;;;;;;29.97;70.34;99797.66;5093586;28;20216;-77
2022/08/18 05:37:41;;;;;;;10.23;7.07;;;;;;;29.12;75.13;99782.97;5081116;28;20343;-77
2022/08/18 05:40:09;;;;;;;21.33;7.80;;;;;;;28.94;78.20;99793.91;5075329;28;20197;-76
2022/08/18 05:42:40;;;;;;;8.68;6.60;;;;;;;28.39;83.00;99785.03;5079136;28;20763;-76
2022/08/18 05:45:11;;;;;;;9.63;7.25;;;;;;;28.28;84.57;99783.03;5076570;28;20199;-77
2022/08/18 05:47:38;;;;;;;12.35;7.43;;;;;;;27.97;87.61;99794.69;5092096;28;20202;-77
2022/08/18 05:50:09;;;;;;;11.32;7.97;;;;;;;27.92;88.89;99796.78;5092994;28;20194;-77
2022/08/18 05:52:40;;;;;;;15.27;7.75;;;;;;;27.57;90.81;99755.41;5093026;28;20202;-77
2022/08/18 05:58:04;;;;;;;9.15;7.55;;;;;;;27.48;94.11;99787.91;5078775;28;20294;-78
2022/08/18 06:00:32;;;;;;;10.25;7.78;;;;;;;27.30;96.38;99778.31;5092952;28;20599;-78
2022/08/18 06:03:04;;;;;;;11.63;7.60;;;;;;;27.45;96.90;99774.78;5092771;28;20222;-78
2022/08/18 06:05:35;;;;;;;10.63;7.28;;;;;;;27.47;96.59;99792.38;5092139;28;20225;-77
2022/08/18 06:08:05;;;;;;;12.77;7.88;;;;;;;27.52;98.67;99784.13;5092807;28;20645;-77
2022/08/18 06:10:35;;;;;;;9.05;7.40;;;;;;;28.02;95.25;99797.94;5092844;28;20202;-78
2022/08/18 06:13:03;;;;;;;8.77;7.32;;;;;;;27.81;94.95;99796.56;5092546;28;20206;-77
2022/08/18 06:15:42;;;;;;;10.00;7.68;;;;;;;27.95;94.09;99793.94;5092673;28;20202;-77
2022/08/18 06:18:37;;;;;;;8.93;8.02;;;;;;;28.11;94.03;99796.53;5092414;28;20194;-78
2022/08/18 06:21:15;;;;;;;10.73;8.32;;;;;;;28.19;93.67;99796.91;5092393;28;20202;-79
2022/08/18 06:23:51;;;;;;;12.35;7.53;;;;;;;28.38;92.04;99797.50;5092081;28;20217;-78
2022/08/18 06:26:27;;;;;;;9.93;7.07;;;;;;;28.43;91.48;99802.56;5056699;28;20201;-78
2022/08/18 06:29:07;;;;;;;9.50;6.90;;;;;;;28.42;91.14;99801.69;5079246;28;20566;-77
2022/08/18 06:31:45;;;;;;;11.32;7.65;;;;;;;28.29;91.97;99803.38;5092088;28;20205;-77
2022/08/18 06:34:23;;;;;;;8.10;7.30;;;;;;;28.58;89.34;99809.56;5092135;28;20204;-77
2022/08/18 06:36:55;;;;;;;8.32;7.03;;;;;;;28.58;88.80;99822.91;5092342;28;20621;-77
2022/08/18 06:39:29;;;;;;;7.85;6.53;;;;;;;28.25;88.84;99790.38;5092217;28;20206;-78
2022/08/18 06:41:57;;;;;;;7.45;6.70;;;;;;;28.23;90.63;99806.44;5089958;28;20205;-78
2022/08/18 06:44:30;;;;;;;10.98;7.32;;;;;;;28.46;88.84;99815.69;5080489;28;20245;-76
2022/08/18 06:47:03;;;;;;;8.02;6.78;;;;;;;28.29;88.90;99816.72;5092316;28;20441;-77
2022/08/18 06:49:42;;;;;;;12.13;7.18;;;;;;;28.50;88.29;99819.88;5072636;28;20206;-78
2022/08/18 06:52:20;;;;;;;7.45;6.78;;;;;;;28.79;86.23;99810.06;5091647;28;20604;-77
2022/08/18 06:54:48;;;;;;;8.65;6.53;;;;;;;28.81;86.06;99811.69;5072694;28;20208;-78
2022/08/18 06:57:26;;;;;;;8.55;7.10;;;;;;;28.90;85.50;99811.06;5091671;28;20206;-77
2022/08/18 07:00:05;;;;;;;6.88;6.18;;;;;;;29.11;84.45;99810.66;5091733;28;20201;-78
2022/08/18 07:02:43;;;;;;;6.80;6.20;;;;;;;29.28;82.43;99816.63;5091861;28;20459;-76
2022/08/18 07:05:21;;;;;;;7.82;6.75;;;;;;;29.45;81.21;99804.81;5091980;28;20212;-76
2022/08/18 07:08:10;;;;;;;9.43;6.38;;;;;;;29.37;80.45;99808.00;5077224;28;20201;-76
2022/08/18 07:10:39;;;;;;;9.85;6.30;;;;;;;29.43;80.83;99801.41;5073827;28;20261;-76
2022/08/18 07:13:15;;;;;;;15.90;7.25;;;;;;;29.43;81.26;99812.91;5091422;28;20202;-77
2022/08/18 07:15:42;;;;;;;10.43;6.85;;;;;;;29.53;79.40;99816.72;5073409;28;20212;-77
2022/08/18 07:18:10;;;;;;;9.50;6.90;;;;;;;29.43;82.54;99820.94;5090299;28;20206;-77
2022/08/18 07:20:43;;;;;;;7.65;6.13;;;;;;;29.63;80.09;99819.59;5091407;28;20217;-76
2022/08/18 07:23:24;;;;;;;9.77;6.65;;;;;;;29.71;79.06;99817.28;5066533;28;20222;-77
2022/08/18 07:26:03;;;;;;;9.00;6.85;;;;;;;29.58;79.73;99820.84;5084928;28;20717;-75
2022/08/18 07:28:35;;;;;;;9.18;6.93;;;;;;;29.79;79.17;99793.53;5074438;28;20205;-77
2022/08/18 07:31:33;;;;;;;6.97;6.28;;;;;;;30.08;77.51;99820.97;5080420;28;20198;-76
2022/08/18 07:34:05;;;;;;;9.10;7.13;;;;;;;29.76;78.69;99819.63;5055249;28;20209;-75
2022/08/18 07:36:37;;;;;;;9.23;6.53;;;;;;;29.87;76.76;99828.66;5068094;28;20285;-78
2022/08/18 07:39:11;;;;;;;7.22;6.05;;;;;;;29.98;75.49;99823.44;5048293;28;20332;-79
2022/08/18 07:41:42;;;;;;;6.90;6.28;;;;;;;30.03;76.08;99823.13;5048058;28;20218;-77
2022/08/18 07:44:17;;;;;;;7.95;6.28;;;;;;;30.41;74.84;99820.44;5054654;28;20237;-79
2022/08/18 07:46:53;;;;;;;6.82;5.93;;;;;;;30.34;75.62;99817.34;5062676;28;20206;-78
2022/08/18 07:49:23;;;;;;;6.72;6.05;;;;;;;30.63;73.07;99822.47;5059450;28;20578;-80
2022/08/18 07:51:56;;;;;;;7.10;6.35;;;;;;;30.45;73.74;99825.50;5047393;28;20203;-77
2022/08/18 07:54:37;;;;;;;7.05;6.45;;;;;;;30.95;75.56;99818.31;5045973;28;20345;-78
2022/08/18 07:57:11;;;;;;;9.50;6.15;;;;;;;30.97;71.15;99806.53;5046586;28;20699;-77
2022/08/18 07:59:46;;;;;;;6.85;6.18;;;;;;;31.11;68.52;99808.19;5047466;28;20207;-77
2022/08/18 08:02:31;;;;;;;6.45;5.80;;;;;;;31.07;68.76;99781.78;5059699;28;20204;-77
2022/08/18 08:05:07;;;;;;;8.57;5.63;;;;;;;31.15;69.20;99808.81;5046898;28;20300;-78
2022/08/18 08:07:55;;;;;;;7.75;5.63;;;;;;;31.31;67.04;99821.00;5048481;28;20797;-77
2022/08/18 08:10:34;;;;;;;8.10;5.47;;;;;;;31.27;67.83;99826.69;5034148;28;20202;-78
2022/08/18 08:13:17;;;;;;;5.32;4.90;;;;;;;31.05;65.78;99814.03;5082081;28;20199;-77
2022/08/18 08:15:56;;;;;;;7.72;5.18;;;;;;;31.20;65.96;99812.91;5073322;28;20202;-77
2022/08/18 08:18:34;;;;;;;9.13;6.53;;;;;;;31.25;69.78;99809.88;5070874;28;20210;-77
2022/08/18 08:21:08;;;;;;;9.32;6.70;;;;;;;31.47;70.38;99810.81;5086425;28;20200;-77
2022/08/18 08:23:45;;;;;;;6.03;5.35;;;;;;;31.68;64.76;99812.91;5090139;28;20588;-79
2022/08/18 08:26:26;;;;;;;15.90;6.70;;;;;;;32.00;66.29;99821.13;5077166;28;20194;-79
2022/08/18 08:29:03;;;;;;;7.20;6.18;;;;;;;31.82;66.97;99821.56;5076296;28;20197;-79
2022/08/18 08:31:41;;;;;;;11.95;6.90;;;;;;;31.82;65.48;99818.88;5089087;28;20677;-78
2022/08/18 08:34:14;;;;;;;12.13;6.68;;;;;;;31.71;67.00;99813.50;5042781;28;20227;-77
2022/08/18 08:36:44;;;;;;;6.97;5.65;;;;;;;31.67;60.89;99820.06;5089485;28;20601;-78
2022/08/18 08:39:19;;;;;;;11.75;5.88;;;;;;;31.86;59.12;99819.50;5081792;28;20198;-78
2022/08/18 08:41:50;;;;;;;5.93;5.30;;;;;;;32.03;60.33;99813.72;5084171;28;20206;-78
2022/08/18 08:44:22;;;;;;;7.50;5.95;;;;;;;32.30;62.65;99810.72;5089464;28;20286;-78
2022/08/18 08:46:56;;;;;;;17.15;6.13;;;;;;;32.09;62.93;99802.53;5074854;28;20198;-78
2022/08/18 08:49:33;;;;;;;13.32;6.53;;;;;;;32.34;61.24;99812.19;5089666;28;20211;-78
2022/08/18 08:52:05;;;;;;;14.65;6.35;;;;;;;31.99;63.06;99779.19;5090036;28;20212;-79
2022/08/18 08:54:44;;;;;;;7.55;5.15;;;;;;;32.07;56.27;99785.66;5053684;28;20202;-72
2022/08/18 08:57:13;;;;;;;6.43;5.10;;;;;;;32.38;54.14;99802.91;5039514;28;20194;-75
2022/08/18 08:59:42;;;;;;;5.50;4.97;;;;;;;32.53;51.92;99811.56;5089908;28;20600;-77
2022/08/18 09:02:34;;;;;;;5.45;4.85;;;;;;;32.66;51.54;99798.91;5053790;28;20216;-78
2022/08/18 09:05:08;;;;;;;10.70;5.60;;;;;;;32.49;52.40;99796.69;5089159;28;20252;-78
2022/08/18 09:07:50;;;;;;;7.93;5.20;;;;;;;32.99;52.33;99795.31;5089203;28;20533;-78
2022/08/18 09:10:39;;;;;;;6.32;5.18;;;;;;;32.90;52.34;99797.75;5089875;28;20209;-78
2022/08/18 09:13:27;;;;;;;7.47;5.30;;;;;;;33.18;52.79;99785.59;5089579;28;20706;-78
2022/08/18 09:16:15;;;;;;;8.68;5.75;;;;;;;33.02;52.95;99779.78;5089343;28;20197;-78
2022/08/18 09:18:51;;;;;;;7.28;5.47;;;;;;;33.54;51.97;99795.09;5078068;28;20263;-78
2022/08/18 09:21:35;;;;;;;6.30;5.70;;;;;;;33.58;51.25;99791.19;5087627;28;20528;-77
2022/08/18 09:24:09;;;;;;;6.82;4.65;;;;;;;33.71;50.32;99786.50;5088921;28;20257;-78
2022/08/18 09:26:44;;;;;;;5.88;5.30;;;;;;;33.72;47.39;99788.22;5084930;28;20194;-77
2022/08/18 09:29:20;;;;;;;6.57;5.55;;;;;;;33.77;46.83;99785.13;5079539;28;20202;-75
2022/08/18 09:31:47;;;;;;;6.13;4.97;;;;;;;33.62;46.63;99784.59;5086405;28;20208;-77
2022/08/18 09:34:39;;;;;;;10.98;4.88;;;;;;;33.76;46.00;99786.09;5088542;28;20622;-78
2022/08/18 09:37:16;;;;;;;6.47;5.18;;;;;;;33.96;44.85;99779.03;5083934;28;20323;-79
2022/08/18 09:42:42;;;;;;;5.53;4.93;;;;;;;34.16;43.86;99762.00;5078632;28;20695;-77
2022/08/18 09:45:26;;;;;;;5.50;5.00;;;;;;;34.60;43.52;99764.31;5079781;28;20246;-77
2022/08/18 09:48:22;;;;;;;5.65;4.90;;;;;;;34.56;42.91;99770.13;5073765;28;20677;-80
2022/08/18 09:51:22;;;;;;;6.50;4.38;;;;;;;34.03;43.56;99739.81;5071724;28;20197;-78
2022/08/18 09:54:05;;;;;;;5.45;4.90;;;;;;;33.93;43.99;99752.38;5086303;28;20202;-78
2022/08/18 09:57:08;;;;;;;6.90;5.18;;;;;;;33.91;43.65;99765.09;5072065;28;20201;-76
2022/08/18 09:59:54;;;;;;;6.13;4.88;;;;;;;34.32;43.33;99765.03;5049760;28;20670;-76
2022/08/18 10:02:54;;;;;;;6.05;5.13;;;;;;;34.56;43.64;99762.03;5049588;28;20195;-77
2022/08/18 10:05:28;;;;;;;5.75;5.15;;;;;;;34.40;43.77;99765.22;4913564;29;20227;-76
2022/08/18 10:08:34;;;;;;;7.80;5.00;;;;;;;34.67;42.52;99753.88;4913655;29;20256;-77
2022/08/18 10:11:18;;;;;;;5.32;4.53;;;;;;;34.63;41.28;99742.53;4913123;29;20310;-77
2022/08/18 10:13:58;;;;;;;5.40;4.90;;;;;;;34.52;43.24;99750.69;4913398;29;20200;-79
2022/08/18 10:16:34;;;;;;;12.80;5.15;;;;;;;34.55;42.37;99745.00;4869479;29;20196;-79
2022/08/18 10:19:16;;;;;;;9.80;4.72;;;;;;;34.78;42.26;99738.41;4913224;29;20204;-79
2022/08/18 10:22:05;;;;;;;10.55;4.88;;;;;;;34.69;42.67;99741.97;4884873;29;20200;-77
2022/08/18 10:24:38;;;;;;;6.10;5.10;;;;;;;34.93;41.18;99732.63;4913558;29;20230;-80
2022/08/18 10:27:07;;;;;;;6.57;5.28;;;;;;;34.38;40.59;99726.81;4914433;29;20207;-79
2022/08/18 10:29:47;;;;;;;5.35;4.82;;;;;;;34.74;39.87;99733.47;4866872;29;20660;-79
2022/08/18 10:32:23;;;;;;;5.10;4.40;;;;;;;34.44;39.84;99710.13;4913164;29;20692;-78
2022/08/18 10:34:52;;;;;;;7.40;5.28;;;;;;;34.72;37.98;99736.28;4913059;29;20204;-78
2022/08/18 10:37:22;;;;;;;8.65;5.20;;;;;;;34.88;38.65;99727.69;4926068;29;20239;-76
2022/08/18 10:40:16;;;;;;;6.03;5.40;;;;;;;35.34;37.90;99729.69;4932007;29;20203;-76
2022/08/18 10:42:47;;;;;;;7.05;4.38;;;;;;;35.22;38.05;99728.13;5015373;28;20194;-76
2022/08/18 10:45:20;;;;;;;4.88;4.47;;;;;;;35.24;38.10;99718.94;5075347;28;20228;-76
2022/08/18 10:47:59;;;;;;;7.95;5.20;;;;;;;35.04;38.34;99713.63;5091641;28;20193;-76
2022/08/18 10:50:29;;;;;;;5.07;4.68;;;;;;;35.18;37.61;99724.00;5091487;28;20240;-77
2022/08/18 10:53:12;;;;;;;9.75;5.05;;;;;;;35.40;36.26;99728.25;5091045;28;20249;-77
2022/08/18 10:55:49;;;;;;;5.20;4.65;;;;;;;34.98;36.85;99724.97;5091424;28;20214;-78
2022/08/18 10:58:55;;;;;;;7.50;5.30;;;;;;;35.26;36.84;99730.41;5091052;28;20205;-77
2022/08/18 11:01:48;;;;;;;12.35;4.65;;;;;;;34.76;35.96;99715.31;4969968;28;20208;-77
2022/08/18 11:04:29;;;;;;;7.68;4.75;;;;;;;35.20;35.03;99717.50;4969094;28;20230;-77
2022/08/18 11:07:03;;;;;;;8.95;5.45;;;;;;;35.31;35.57;99694.94;4969944;28;20198;-76
2022/08/18 11:09:31;;;;;;;6.40;5.15;;;;;;;35.75;35.32;99729.38;4969574;28;20777;-77
2022/08/18 11:12:02;;;;;;;6.28;5.25;;;;;;;35.78;34.79;99715.59;4969658;28;20603;-78
2022/08/18 11:15:00;;;;;;;5.22;4.72;;;;;;;35.33;35.11;99703.72;4969820;28;20728;-78
2022/08/18 11:17:42;;;;;;;8.20;4.85;;;;;;;35.41;35.15;99711.09;4918118;29;20734;-77
2022/08/18 11:20:13;;;;;;;5.75;5.15;;;;;;;35.58;34.65;99715.75;4950143;29;20209;-78
2022/08/18 11:22:50;;;;;;;7.13;5.10;;;;;;;35.76;34.74;99705.94;4950572;29;20473;-78
2022/08/18 11:25:23;;;;;;;8.20;4.88;;;;;;;35.86;35.79;99695.09;4902093;29;20230;-78
2022/08/18 11:27:52;;;;;;;9.18;4.78;;;;;;;35.03;37.25;99711.94;4950186;28;20194;-78
2022/08/18 11:30:20;;;;;;;5.45;5.00;;;;;;;35.07;37.63;99707.97;4949939;29;20213;-76
2022/08/18 11:32:49;;;;;;;5.50;5.00;;;;;;;35.41;36.20;99711.94;4950297;29;20210;-78
2022/08/18 11:35:19;;;;;;;8.00;5.38;;;;;;;35.86;36.62;99705.91;4950107;29;20296;-77
2022/08/18 11:37:49;;;;;;;10.25;5.60;;;;;;;35.98;36.03;99688.53;4949551;28;20231;-76
2022/08/18 11:40:33;;;;;;;7.72;5.20;;;;;;;35.91;36.12;99688.28;5048040;28;20206;-79
2022/08/18 11:43:04;;;;;;;5.68;5.28;;;;;;;35.75;36.31;99677.25;5048060;28;20280;-77
2022/08/18 11:45:34;;;;;;;5.80;5.05;;;;;;;35.91;35.77;99690.13;5047381;28;20223;-77
2022/08/18 11:48:18;;;;;;;5.60;5.00;;;;;;;36.03;35.62;99686.25;5047789;28;20602;-77
2022/08/18 11:50:49;;;;;;;7.90;5.60;;;;;;;35.73;35.57;99684.66;4997833;28;20237;-77
2022/08/18 11:53:25;;;;;;;6.13;5.40;;;;;;;35.49;36.06;99652.75;5047474;28;20195;-77
2022/08/18 11:56:17;;;;;;;8.48;4.85;;;;;;;35.63;35.93;99665.81;5071269;28;20640;-77
2022/08/18 11:58:47;;;;;;;7.05;5.28;;;;;;;35.69;35.97;99667.91;5089970;28;20193;-77
2022/08/18 12:01:30;;;;;;;9.93;5.38;;;;;;;35.86;35.58;99668.13;5090409;28;20335;-77
2022/08/18 12:03:59;;;;;;;8.05;5.10;;;;;;;35.34;36.19;99659.59;4978081;28;20210;-78
2022/08/18 12:06:29;;;;;;;11.40;5.82;;;;;;;35.50;36.25;99657.13;5027464;28;20348;-76
2022/08/18 12:09:01;;;;;;;8.85;5.45;;;;;;;35.70;35.49;99668.75;5027289;28;20289;-76
2022/08/18 12:11:31;;;;;;;6.57;5.55;;;;;;;35.33;35.63;99639.00;5027606;28;20188;-76
2022/08/18 12:14:06;;;;;;;6.80;5.65;;;;;;;35.86;35.57;99668.13;5027547;28;20724;-76